Latest Coastal Weather Observations for Point Cook

IDV60701

Issued at 8:02 pm EDT Saturday 10 December 2022 (issued every 10 minutes, with the page automatically refreshed every 10 minutes)

About coastal observations | Map of coastal stations | Coastal observations for VIC | Marine services | Other Formats
Station Details ID: 087185 Name: POINT COOK RAAF Lat: -37.93 Lon: 144.76 Height: 3.13 m
Data from the previous 72 hours. | See also: Recent months for locations in Victoria
Date/Time
EDT
Wind Sea
Height
m
Swell Vis
km
Cloud Weather Temp
°C
Press
MSL
hPa
Rain since
9am
mm
Dir  Spd
kts
Gust
kts
Height
m
Period
s
Dir
10/08:00pm S 7 9 - - - - 10 - - 19.4 1010.3 0.0
10/07:30pm S 10 13 - - - - 10 Partly cloudy - 19.1 1010.1 0.0
10/07:00pm S 10 13 - - - - 10 - - 19.3 1010.2 0.0
10/06:30pm S 10 13 - - - - 10 Partly cloudy - 20.2 1010.2 0.0
10/06:00pm S 9 12 - - - - 10 Cloudy - 21.1 1010.3 0.0
10/05:30pm S 9 13 - - - - 10 - - 20.9 1010.5 0.0
10/05:00pm SSE 11 14 - - - - 10 - - 20.6 1010.4 0.0
10/04:30pm SSE 13 15 - - - - 10 - - 20.4 1010.7 0.0
10/04:00pm SSE 12 15 - - - - 10 - - 20.1 1011.4 0.0
10/03:30pm SSE 11 14 - - - - 10 - - 20.3 1011.8 0.0
10/03:00pm SSE 11 13 - - - - 10 Mostly cloudy - 20.2 1012.2 0.0
10/02:30pm S 10 13 - - - - 10 - - 20.3 1012.6 0.0
10/02:00pm S 10 13 - - - - 10 - - 19.2 1013.3 0.0
10/01:30pm S 9 12 - - - - 10 - - 18.8 1013.7 0.0
10/01:00pm SSE 9 11 - - - - 10 - - 17.7 1014.0 0.0
10/12:30pm SSE 8 10 - - - - 10 - - 17.2 1014.5 0.0
10/12:00pm SSE 6 8 - - - - 10 Mostly clear - 16.7 1015.0 0.0
10/11:30am SSE 5 7 - - - - 10 - - 16.3 1015.6 0.0
10/11:00am S 5 8 - - - - 10 - - 15.9 1015.6 0.0
10/10:30am S 5 8 - - - - 10 - - 15.0 1015.9 0.0
10/10:00am S 4 6 - - - - 10 - - 14.4 1016.2 0.0
10/09:30am S 3 5 - - - - 10 - - 13.6 1016.7 0.0
10/09:00am SSE 3 7 - - - - 10 Mostly clear - 13.8 1016.7 0.0
10/08:30am SE 4 6 - - - - 10 - - 13.4 1016.7 0.0
10/08:00am SE 6 7 - - - - 10 - - 12.9 1016.3 0.0
10/07:30am ESE 5 8 - - - - 10 - - 12.7 1016.5 0.0
10/07:00am ENE 5 7 - - - - 10 - - 12.4 1016.3 0.0
10/06:30am ESE 8 11 - - - - 10 - - 12.2 1016.1 0.0
10/06:00am ESE 11 14 - - - - 10 Mostly clear - 11.7 1015.9 0.0
10/05:30am ESE 11 15 - - - - 10 - - 12.0 1015.7 0.0
10/05:00am ESE 12 15 - - - - 10 - - 12.3 1015.5 0.0
10/04:30am ESE 13 17 - - - - 10 - - 12.6 1015.3 0.0
10/04:00am SE 10 13 - - - - 10 - - 12.6 1015.9 0.0
10/03:30am SE 10 14 - - - - 10 - - 12.9 1016.0 0.0
10/03:00am SE 9 13 - - - - 10 Mostly clear - 13.0 1016.2 0.0
10/02:30am SE 11 14 - - - - 10 - - 13.2 1016.1 0.0
10/02:00am ESE 10 13 - - - - 10 - - 13.3 1016.5 0.0
10/01:30am SE 10 14 - - - - 10 - - 13.4 1016.8 0.0
10/01:00am SE 10 14 - - - - 10 - - 13.6 1017.1 0.0
10/12:30am SE 9 12 - - - - 10 - - 13.4 1017.4 0.0
10/12:00am SE 7 9 - - - - 10 Partly cloudy - 13.0 1017.5 0.0
 
Date/Time
EDT
Wind Sea
Height
m
Swell Vis
km
Cloud Weather Temp
°C
Press
MSL
hPa
Rain since
9am
mm
Dir  Spd
kts
Gust
kts
Height
m
Period
s
Dir
09/11:30pm SE 8 11 - - - - 10 - - 13.2 1017.7 0.0
09/11:00pm SE 10 14 - - - - 10 - - 13.3 1017.7 0.0
09/10:30pm SSE 9 14 - - - - 10 - - 13.2 1017.8 0.0
09/10:00pm SSE 10 13 - - - - 10 - - 13.2 1017.6 0.0
09/09:30pm SSE 11 15 - - - - 10 - - 13.4 1017.7 0.0
09/09:00pm SSE 10 12 - - - - 10 - - 13.4 1017.6 0.0
09/08:30pm S 9 13 - - - - 10 - - 13.6 1017.5 0.0
09/08:00pm S 10 14 - - - - 10 - - 14.2 1017.4 0.0
09/07:30pm S 10 13 - - - - 10 - - 14.8 1017.0 0.0
09/07:00pm SSE 12 16 - - - - 10 - - 15.2 1016.7 0.0
09/06:30pm SSE 13 18 - - - - 10 - - 15.5 1016.5 0.0
09/06:00pm S 15 18 - - - - 10 Partly cloudy - 15.9 1016.4 0.0
09/05:30pm S 15 19 - - - - 10 - - 16.3 1016.8 0.0
09/05:00pm S 16 19 - - - - 10 - - 16.2 1017.0 0.0
09/04:30pm SSW 16 19 - - - - 10 - - 15.6 1017.4 0.0
09/04:00pm SSW 16 20 - - - - 10 - - 16.3 1017.3 0.0
09/03:30pm SSW 16 19 - - - - 10 - - 16.2 1017.4 0.0
09/03:00pm S 13 17 - - - - 10 Partly cloudy - 16.1 1017.6 0.0
09/02:30pm S 11 15 - - - - 10 - - 15.9 1017.8 0.0
09/02:00pm S 12 17 - - - - 10 - - 16.3 1018.0 0.0
09/01:30pm S 12 16 - - - - 10 - - 16.3 1018.2 0.0
09/01:00pm S 13 18 - - - - 10 Partly cloudy - 15.8 1018.1 0.0
09/12:30pm S 14 19 - - - - 10 Partly cloudy - 15.3 1018.3 0.0
09/12:00pm S 13 17 - - - - 10 Cloudy - 16.1 1018.5 0.0
09/11:30am S 13 16 - - - - 10 Partly cloudy - 15.4 1018.4 0.0
09/11:00am S 13 16 - - - - 10 Partly cloudy - 15.6 1018.5 0.0
09/10:30am S 12 17 - - - - 10 Partly cloudy - 15.1 1018.3 0.0
09/10:00am S 13 18 - - - - 10 Partly cloudy - 14.8 1018.3 0.0
09/09:30am S 13 17 - - - - 10 Partly cloudy - 14.9 1018.4 0.0
09/09:00am S 12 17 - - - - 10 Cloudy - 14.7 1018.1 0.2
09/08:30am SSE 11 15 - - - - 10 Partly cloudy - 13.8 1017.9 0.2
09/08:00am SSE 8 12 - - - - 10 Partly cloudy - 12.7 1017.7 0.2
09/07:30am SSE 10 13 - - - - 10 Cloudy - 12.7 1017.4 0.2
09/07:00am S 13 17 - - - - 10 Partly cloudy - 12.7 1016.9 0.2
09/06:30am S 13 17 - - - - 10 Partly cloudy - 12.3 1016.8 0.2
09/06:00am S 14 19 - - - - 10 Partly cloudy - 12.2 1016.7 0.2
09/05:30am S 13 17 - - - - 10 Partly cloudy - 12.4 1016.4 0.2
09/05:00am S 15 22 - - - - 10 Partly cloudy - 12.3 1015.7 0.2
09/04:30am S 14 18 - - - - 10 Partly cloudy - 12.4 1015.7 0.2
09/04:00am S 15 18 - - - - 10 Partly cloudy - 12.4 1016.1 0.2
09/03:30am SSW 12 16 - - - - 10 Partly cloudy - 11.3 1016.5 0.2
09/03:17am SSW 15 25 - - - - 10 Partly cloudy - 11.9 1016.7 0.2
09/03:00am SSW 14 18 - - - - 10 Partly cloudy - 12.1 1016.9 0.2
09/02:30am SSW 14 18 - - - - 10 Partly cloudy - 11.7 1017.0 0.2
09/02:00am SSW 14 20 - - - - 10 Partly cloudy - 11.9 1017.3 0.2
09/01:30am SSW 15 19 - - - - 10 Partly cloudy - 12.1 1017.5 0.2
09/01:00am SW 14 20 - - - - 10 Partly cloudy - 12.0 1017.7 0.2
09/12:30am SSW 13 18 - - - - 10 Partly cloudy - 12.4 1017.5 0.2
09/12:00am SSW 15 20 - - - - 10 Cloudy - 12.2 1017.2 0.2
 
Date/Time
EDT
Wind Sea
Height
m
Swell Vis
km
Cloud Weather Temp
°C
Press
MSL
hPa
Rain since
9am
mm
Dir  Spd
kts
Gust
kts
Height
m
Period
s
Dir
08/11:30pm SSW 14 17 - - - - 10 Partly cloudy - 12.4 1017.4 0.2
08/11:00pm SSW 14 19 - - - - 10 Partly cloudy - 12.2 1017.6 0.2
08/10:30pm SSW 14 18 - - - - 10 Partly cloudy - 12.5 1017.6 0.2
08/10:00pm SW 14 19 - - - - 10 Partly cloudy - 12.0 1017.2 0.2
08/09:30pm SW 16 21 - - - - 10 - - 12.1 1016.9 0.2
08/09:00pm SSW 17 23 - - - - 10 Mostly clear - 12.4 1016.6 0.2
08/08:30pm SSW 19 24 - - - - 10 - - 12.7 1016.6 0.2
08/08:00pm SSW 17 23 - - - - 10 Partly cloudy - 13.2 1016.6 0.2
08/07:30pm SSW 19 25 - - - - 10 Partly cloudy - 13.7 1016.3 0.2
08/07:00pm SSW 19 24 - - - - 10 Partly cloudy - 13.8 1016.0 0.2
08/06:30pm SSW 19 24 - - - - 10 - - 14.4 1015.5 0.2
08/06:00pm SSW 19 26 - - - - 10 Cloudy - 14.9 1015.3 0.2
08/05:30pm SSW 19 25 - - - - 10 Partly cloudy - 15.4 1015.1 0.2
08/05:00pm SSW 19 25 - - - - 10 Partly cloudy - 15.5 1015.2 0.2
08/04:30pm SSW 17 23 - - - - 10 Partly cloudy - 15.6 1015.1 0.2
08/04:00pm SSW 18 23 - - - - 10 Partly cloudy - 15.8 1015.1 0.2
08/03:30pm SSW 18 23 - - - - 10 Partly cloudy - 15.3 1015.1 0.2
08/03:00pm SSW 18 23 - - - - 10 Cloudy - 15.5 1015.2 0.2
08/02:30pm SSW 18 25 - - - - 10 Partly cloudy - 15.8 1015.1 0.2
08/02:00pm SSW 18 26 - - - - 10 Partly cloudy - 16.2 1015.0 0.2
08/01:30pm S 17 21 - - - - 10 - - 15.4 1015.0 0.2
08/01:00pm SSW 19 25 - - - - 10 Partly cloudy - 15.2 1015.1 0.2
08/12:30pm SW 20 27 - - - - 10 Partly cloudy - 15.5 1015.0 0.2
08/12:00pm SW 17 25 - - - - 10 Cloudy - 16.2 1014.7 0.2
08/11:30am SW 19 24 - - - - 10 Partly cloudy - 15.9 1014.6 0.2
08/11:00am WSW 15 22 - - - - 10 Partly cloudy - 13.7 1014.7 0.2
08/10:30am SW 17 21 - - - - 10 Partly cloudy - 13.0 1014.5 0.0
08/10:15am SW 15 29 - - - - 10 Partly cloudy - 12.5 1014.5 0.0
08/10:00am SW 20 27 - - - - 10 Partly cloudy - 11.8 1014.3 0.0
08/09:30am WSW 15 21 - - - - 10 - - 14.0 1013.8 0.0
08/09:00am WSW 15 22 - - - - 10 Cloudy Showers 12.4 1013.5 0.0
08/08:30am W 11 16 - - - - 10 Partly cloudy - 11.3 1013.0 0.0
08/08:00am WSW 10 13 - - - - 10 Partly cloudy - 9.8 1012.7 0.0
08/07:30am WSW 15 25 - - - - 10 Partly cloudy - 9.5 1012.3 0.0
08/07:00am W 10 13 - - - - 10 - - 8.6 1011.8 0.0
08/06:30am W 9 12 - - - - 10 Partly cloudy - 8.3 1011.4 0.0
08/06:00am W 9 13 - - - - 10 Cloudy - 8.2 1011.1 0.0
08/05:30am W 10 13 - - - - 10 Partly cloudy - 8.2 1010.6 0.0
08/05:00am W 10 13 - - - - 10 - - 8.2 1010.6 0.0
08/04:30am W 11 16 - - - - 10 Partly cloudy - 8.4 1010.5 0.0
08/04:00am W 11 15 - - - - 10 Partly cloudy - 8.5 1010.7 0.0
08/03:30am W 10 13 - - - - 10 Partly cloudy - 8.6 1010.4 0.0
08/03:00am W 9 13 - - - - 10 Mostly clear - 8.7 1010.2 0.0
08/02:30am W 10 15 - - - - 10 Partly cloudy - 8.9 1010.4 0.0
08/02:00am W 10 14 - - - - 10 Partly cloudy - 8.9 1010.3 0.0
08/01:30am WNW 8 14 - - - - 10 - - 8.7 1010.5 0.0
08/01:00am W 9 14 - - - - 10 - - 9.1 1010.6 0.0
08/12:30am W 10 14 - - - - 10 Partly cloudy - 9.6 1010.7 0.0
08/12:00am W 9 13 - - - - 10 - - 10.0 1010.6 0.0
 
Date/Time
EDT
Wind Sea
Height
m
Swell Vis
km
Cloud Weather Temp
°C
Press
MSL
hPa
Rain since
9am
mm
Dir  Spd
kts
Gust
kts
Height
m
Period
s
Dir
07/11:30pm W 11 14 - - - - 10 - - 10.5 1010.4 0.0
07/11:00pm W 14 20 - - - - 10 Partly cloudy - 11.5 1010.2 0.0
07/10:30pm W 16 23 - - - - 10 Partly cloudy - 11.8 1009.7 0.0
07/10:00pm W 16 25 - - - - 10 - - 12.2 1008.8 0.0
07/09:57pm W 15 25 - - - - 10 - - 12.3 1008.8 0.0
07/09:30pm W 13 19 - - - - 10 Partly cloudy - 12.4 1008.3 0.0
07/09:00pm WSW 15 25 - - - - 10 Cloudy Recent precip. 13.2 1007.6 0.0
07/08:30pm W 15 22 - - - - 10 Partly cloudy - 13.6 1007.0 0.0

Other formats

Comma delimited format used in spreadsheet applications
http://www.bom.gov.au/fwo/IDV60701/IDV60701.95941.axf

JavaScript Object Notation format (JSON) in row-major order
http://www.bom.gov.au/fwo/IDV60701/IDV60701.95941.json

Data quality

Most of these data are generated automatically and are frequently updated. Quality checks on data are not normally performed. It is possible for incorrect values to appear. Refer to information at About Latest Weather Observations and please check the disclaimer before using these data.